sensor_id;sensor_type;location;lat;lon;timestamp;pressure;altitude;pressure_sealevel;temperature;humidity
51249;BME280;39642;47.556;18.728;2023-02-07T00:00:14;101766.47;;;22.17;21.04
51249;BME280;39642;47.556;18.728;2023-02-07T00:02:45;101766.47;;;22.17;21.01
51249;BME280;39642;47.556;18.728;2023-02-07T00:05:11;101779.75;;;22.17;21.01
51249;BME280;39642;47.556;18.728;2023-02-07T00:07:37;101783.22;;;22.19;21.04
51249;BME280;39642;47.556;18.728;2023-02-07T00:10:04;101786.72;;;22.19;21.02
51249;BME280;39642;47.556;18.728;2023-02-07T00:12:31;101789.37;;;22.19;21.02
51249;BME280;39642;47.556;18.728;2023-02-07T00:14:57;101788.50;;;22.19;20.95
51249;BME280;39642;47.556;18.728;2023-02-07T00:17:23;101803.50;;;22.20;20.96
51249;BME280;39642;47.556;18.728;2023-02-07T00:19:48;101793.78;;;22.20;20.98
51249;BME280;39642;47.556;18.728;2023-02-07T00:22:14;101799.09;;;22.20;20.96
51249;BME280;39642;47.556;18.728;2023-02-07T00:24:40;101801.75;;;22.20;20.98
51249;BME280;39642;47.556;18.728;2023-02-07T00:27:06;101797.28;;;22.21;20.95
51249;BME280;39642;47.556;18.728;2023-02-07T00:29:32;101810.56;;;22.21;20.97
51249;BME280;39642;47.556;18.728;2023-02-07T00:31:58;101813.22;;;22.21;20.94
51249;BME280;39642;47.556;18.728;2023-02-07T00:34:24;101806.16;;;22.20;20.94
51249;BME280;39642;47.556;18.728;2023-02-07T00:36:50;101808.88;;;22.18;20.95
51249;BME280;39642;47.556;18.728;2023-02-07T00:39:17;101817.69;;;22.19;21.02
51249;BME280;39642;47.556;18.728;2023-02-07T00:41:43;101820.34;;;22.19;20.98
51249;BME280;39642;47.556;18.728;2023-02-07T00:44:10;101819.53;;;22.17;20.97
51249;BME280;39642;47.556;18.728;2023-02-07T00:46:37;101821.28;;;22.18;20.97
51249;BME280;39642;47.556;18.728;2023-02-07T00:49:04;101816.94;;;22.15;20.97
51249;BME280;39642;47.556;18.728;2023-02-07T00:51:30;101814.28;;;22.15;21.03
51249;BME280;39642;47.556;18.728;2023-02-07T00:53:56;101817.84;;;22.14;20.98
51249;BME280;39642;47.556;18.728;2023-02-07T00:56:24;101809.91;;;22.14;20.96
51249;BME280;39642;47.556;18.728;2023-02-07T00:58:50;101801.97;;;22.13;20.98
51249;BME280;39642;47.556;18.728;2023-02-07T01:01:16;101803.78;;;22.12;20.95
51249;BME280;39642;47.556;18.728;2023-02-07T01:03:42;101801.12;;;22.12;20.95
51249;BME280;39642;47.556;18.728;2023-02-07T01:06:08;101800.25;;;22.12;20.92
51249;BME280;39642;47.556;18.728;2023-02-07T01:08:34;101802.06;;;22.11;20.91
51249;BME280;39642;47.556;18.728;2023-02-07T01:11:07;101808.25;;;22.10;20.93
51249;BME280;39642;47.556;18.728;2023-02-07T01:13:33;101801.16;;;22.11;20.91
51249;BME280;39642;47.556;18.728;2023-02-07T01:16:00;101802.09;;;22.10;20.87
51249;BME280;39642;47.556;18.728;2023-02-07T01:18:26;101799.44;;;22.10;20.83
51249;BME280;39642;47.556;18.728;2023-02-07T01:20:52;101793.28;;;22.09;20.85
51249;BME280;39642;47.556;18.728;2023-02-07T01:23:18;101782.66;;;22.09;20.84
51249;BME280;39642;47.556;18.728;2023-02-07T01:25:45;101786.19;;;22.10;20.82
51249;BME280;39642;47.556;18.728;2023-02-07T01:28:12;101772.06;;;22.09;20.82
51249;BME280;39642;47.556;18.728;2023-02-07T01:30:39;101775.56;;;22.10;20.77
51249;BME280;39642;47.556;18.728;2023-02-07T01:33:06;101779.06;;;22.10;20.75
51249;BME280;39642;47.556;18.728;2023-02-07T01:35:32;101783.47;;;22.11;20.71
51249;BME280;39642;47.556;18.728;2023-02-07T01:37:58;101779.94;;;22.11;20.70
51249;BME280;39642;47.556;18.728;2023-02-07T01:40:24;101774.59;;;22.12;20.65
51249;BME280;39642;47.556;18.728;2023-02-07T01:42:51;101768.41;;;22.12;20.62
51249;BME280;39642;47.556;18.728;2023-02-07T01:47:46;101763.97;;;22.12;20.62
51249;BME280;39642;47.556;18.728;2023-02-07T01:50:12;101768.31;;;22.15;20.60
51249;BME280;39642;47.556;18.728;2023-02-07T01:52:39;101758.63;;;22.14;20.60
51249;BME280;39642;47.556;18.728;2023-02-07T01:55:10;101758.63;;;22.14;20.61
51249;BME280;39642;47.556;18.728;2023-02-07T01:57:38;101752.37;;;22.15;20.60
51249;BME280;39642;47.556;18.728;2023-02-07T02:00:04;101756.78;;;22.16;20.60
51249;BME280;39642;47.556;18.728;2023-02-07T02:02:33;101743.53;;;22.16;20.57
51249;BME280;39642;47.556;18.728;2023-02-07T02:04:59;101749.69;;;22.16;20.54
51249;BME280;39642;47.556;18.728;2023-02-07T02:07:27;101743.53;;;22.16;20.55
51249;BME280;39642;47.556;18.728;2023-02-07T02:09:54;101747.91;;;22.17;20.53
51249;BME280;39642;47.556;18.728;2023-02-07T02:29:15;101737.16;;;22.20;20.54
51249;BME280;39642;47.556;18.728;2023-02-07T02:32:14;101741.56;;;22.21;20.51
51249;BME280;39642;47.556;18.728;2023-02-07T02:37:53;101731.84;;;22.20;20.52
51249;BME280;39642;47.556;18.728;2023-02-07T02:40:30;101744.25;;;22.19;20.58
51249;BME280;39642;47.556;18.728;2023-02-07T02:43:12;101750.44;;;22.20;20.56
51249;BME280;39642;47.556;18.728;2023-02-07T02:46:02;101754.03;;;22.19;20.55
51249;BME280;39642;47.556;18.728;2023-02-07T02:48:32;101742.59;;;22.17;20.60
51249;BME280;39642;47.556;18.728;2023-02-07T02:50:59;101742.59;;;22.17;20.53
51249;BME280;39642;47.556;18.728;2023-02-07T02:53:25;101752.34;;;22.16;20.54
51249;BME280;39642;47.556;18.728;2023-02-07T02:58:55;101743.53;;;22.16;20.52
51249;BME280;39642;47.556;18.728;2023-02-07T03:01:52;101755.03;;;22.15;20.53
51249;BME280;39642;47.556;18.728;2023-02-07T03:07:07;101756.84;;;22.14;20.48
51249;BME280;39642;47.556;18.728;2023-02-07T03:12:26;101754.22;;;22.13;20.46
51249;BME280;39642;47.556;18.728;2023-02-07T03:15:14;101757.69;;;22.15;20.47
51249;BME280;39642;47.556;18.728;2023-02-07T03:22:45;101725.91;;;22.13;20.43
51249;BME280;39642;47.556;18.728;2023-02-07T03:25:13;101744.47;;;22.13;20.42
51249;BME280;39642;47.556;18.728;2023-02-07T03:27:40;101749.84;;;22.12;20.41
51249;BME280;39642;47.556;18.728;2023-02-07T03:30:11;101750.72;;;22.12;20.41
51249;BME280;39642;47.556;18.728;2023-02-07T03:32:40;101743.59;;;22.13;20.39
51249;BME280;39642;47.556;18.728;2023-02-07T03:35:12;101744.53;;;22.12;20.35
51249;BME280;39642;47.556;18.728;2023-02-07T03:37:50;101750.72;;;22.12;20.35
51249;BME280;39642;47.556;18.728;2023-02-07T03:40:17;101755.16;;;22.12;20.32
51249;BME280;39642;47.556;18.728;2023-02-07T03:43:17;101751.56;;;22.13;20.29
51249;BME280;39642;47.556;18.728;2023-02-07T03:45:45;101736.50;;;22.13;20.33
51249;BME280;39642;47.556;18.728;2023-02-07T03:48:11;101734.78;;;22.12;20.25
51249;BME280;39642;47.556;18.728;2023-02-07T03:50:37;101740.06;;;22.14;20.22
51249;BME280;39642;47.556;18.728;2023-02-07T03:53:03;101748.00;;;22.14;20.20
51249;BME280;39642;47.556;18.728;2023-02-07T03:55:30;101755.03;;;22.15;20.19
51249;BME280;39642;47.556;18.728;2023-02-07T03:57:56;101757.69;;;22.15;20.20
51249;BME280;39642;47.556;18.728;2023-02-07T04:00:22;101758.56;;;22.15;20.17
51249;BME280;39642;47.556;18.728;2023-02-07T04:02:48;101759.44;;;22.16;20.15
51249;BME280;39642;47.556;18.728;2023-02-07T04:05:14;101740.88;;;22.16;20.12
51249;BME280;39642;47.556;18.728;2023-02-07T04:07:39;101740.88;;;22.16;20.13
51249;BME280;39642;47.556;18.728;2023-02-07T04:10:06;101734.69;;;22.15;20.15
51249;BME280;39642;47.556;18.728;2023-02-07T04:12:32;101736.38;;;22.18;20.10
51249;BME280;39642;47.556;18.728;2023-02-07T04:14:59;101736.38;;;22.18;20.14
51249;BME280;39642;47.556;18.728;2023-02-07T04:17:25;101733.72;;;22.18;20.11
51249;BME280;39642;47.556;18.728;2023-02-07T04:19:50;101726.62;;;22.18;20.12
51249;BME280;39642;47.556;18.728;2023-02-07T04:22:16;101722.19;;;22.19;20.10
51249;BME280;39642;47.556;18.728;2023-02-07T04:24:42;101719.53;;;22.19;20.12
51249;BME280;39642;47.556;18.728;2023-02-07T04:27:08;101719.47;;;22.20;20.11
51249;BME280;39642;47.556;18.728;2023-02-07T04:29:34;101721.25;;;22.20;20.14
51249;BME280;39642;47.556;18.728;2023-02-07T04:32:00;101720.38;;;22.19;20.19
51249;BME280;39642;47.556;18.728;2023-02-07T04:34:27;101722.19;;;22.19;20.12
51249;BME280;39642;47.556;18.728;2023-02-07T04:36:53;101728.34;;;22.19;20.11
51249;BME280;39642;47.556;18.728;2023-02-07T04:39:19;101731.84;;;22.20;20.10
51249;BME280;39642;47.556;18.728;2023-02-07T04:41:45;101733.66;;;22.19;20.24
51249;BME280;39642;47.556;18.728;2023-02-07T04:44:11;101737.25;;;22.18;20.07
51249;BME280;39642;47.556;18.728;2023-02-07T04:46:37;101736.38;;;22.18;20.11
51249;BME280;39642;47.556;18.728;2023-02-07T04:49:03;101737.25;;;22.18;20.10
51249;BME280;39642;47.556;18.728;2023-02-07T04:51:29;101737.25;;;22.18;20.12
51249;BME280;39642;47.556;18.728;2023-02-07T04:53:55;101739.91;;;22.18;20.17
51249;BME280;39642;47.556;18.728;2023-02-07T04:56:22;101745.19;;;22.18;20.12
51249;BME280;39642;47.556;18.728;2023-02-07T04:58:48;101752.31;;;22.18;20.07
51249;BME280;39642;47.556;18.728;2023-02-07T05:01:14;101754.97;;;22.18;20.10
51249;BME280;39642;47.556;18.728;2023-02-07T05:03:40;101763.81;;;22.17;20.03
51249;BME280;39642;47.556;18.728;2023-02-07T05:06:06;101774.44;;;22.17;19.95
51249;BME280;39642;47.556;18.728;2023-02-07T05:08:32;101776.22;;;22.16;19.99
51249;BME280;39642;47.556;18.728;2023-02-07T05:10:58;101777.03;;;22.18;19.97
51249;BME280;39642;47.556;18.728;2023-02-07T05:13:24;101779.75;;;22.17;19.97
51249;BME280;39642;47.556;18.728;2023-02-07T05:15:50;101778.87;;;22.16;19.97
51249;BME280;39642;47.556;18.728;2023-02-07T05:18:16;101773.56;;;22.16;19.91
51249;BME280;39642;47.556;18.728;2023-02-07T05:20:43;101774.44;;;22.17;19.91
51249;BME280;39642;47.556;18.728;2023-02-07T05:23:09;101779.75;;;22.17;19.92
51249;BME280;39642;47.556;18.728;2023-02-07T05:25:35;101788.50;;;22.19;19.89
51249;BME280;39642;47.556;18.728;2023-02-07T05:28:01;101796.47;;;22.19;19.78
51249;BME280;39642;47.556;18.728;2023-02-07T05:30:27;101799.13;;;22.19;19.74
51249;BME280;39642;47.556;18.728;2023-02-07T05:32:53;101801.78;;;22.19;19.75
51249;BME280;39642;47.556;18.728;2023-02-07T05:35:34;101800.84;;;22.20;19.89
51249;BME280;39642;47.556;18.728;2023-02-07T05:38:01;101791.12;;;22.20;19.79
51249;BME280;39642;47.556;18.728;2023-02-07T05:40:29;101793.75;;;22.22;19.84
51249;BME280;39642;47.556;18.728;2023-02-07T05:42:55;101791.09;;;22.22;19.90
51249;BME280;39642;47.556;18.728;2023-02-07T05:45:21;101796.34;;;22.23;19.98
51249;BME280;39642;47.556;18.728;2023-02-07T05:47:47;101788.38;;;22.23;19.87
51249;BME280;39642;47.556;18.728;2023-02-07T05:50:13;101793.69;;;22.23;22.05
51249;BME280;39642;47.556;18.728;2023-02-07T05:52:39;101797.16;;;22.26;22.11
51249;BME280;39642;47.556;18.728;2023-02-07T05:55:05;101796.19;;;22.28;20.75
51249;BME280;39642;47.556;18.728;2023-02-07T05:57:31;101807.66;;;22.29;20.61
51249;BME280;39642;47.556;18.728;2023-02-07T05:59:57;101800.59;;;22.29;20.88
51249;BME280;39642;47.556;18.728;2023-02-07T06:02:23;101794.41;;;22.29;20.25
51249;BME280;39642;47.556;18.728;2023-02-07T06:04:49;101796.19;;;22.28;20.67
51249;BME280;39642;47.556;18.728;2023-02-07T06:07:15;101804.19;;;22.27;20.66
51249;BME280;39642;47.556;18.728;2023-02-07T06:09:40;101806.84;;;22.27;21.22
51249;BME280;39642;47.556;18.728;2023-02-07T06:12:06;101806.84;;;22.27;21.28
51249;BME280;39642;47.556;18.728;2023-02-07T06:14:32;101806.00;;;22.26;21.73
51249;BME280;39642;47.556;18.728;2023-02-07T06:16:58;101804.19;;;22.27;22.64
51249;BME280;39642;47.556;18.728;2023-02-07T06:19:24;101805.09;;;22.27;22.78
51249;BME280;39642;47.556;18.728;2023-02-07T06:21:50;101804.16;;;22.28;22.74
51249;BME280;39642;47.556;18.728;2023-02-07T06:24:16;101801.50;;;22.28;22.99
51249;BME280;39642;47.556;18.728;2023-02-07T06:26:42;101808.56;;;22.29;23.13
51249;BME280;39642;47.556;18.728;2023-02-07T06:29:08;101796.06;;;22.31;23.51
51249;BME280;39642;47.556;18.728;2023-02-07T06:31:34;101797.81;;;22.32;23.84
51249;BME280;39642;47.556;18.728;2023-02-07T06:34:00;101795.38;;;22.26;24.56
51249;BME280;39642;47.556;18.728;2023-02-07T06:36:26;101797.22;;;22.24;23.72
51249;BME280;39642;47.556;18.728;2023-02-07T06:38:52;101802.59;;;22.22;23.05
51249;BME280;39642;47.556;18.728;2023-02-07T06:41:21;101798.19;;;22.21;23.68
51249;BME280;39642;47.556;18.728;2023-02-07T06:43:47;101800.84;;;22.21;24.53
51249;BME280;39642;47.556;18.728;2023-02-07T06:46:13;101789.34;;;22.21;23.20
51249;BME280;39642;47.556;18.728;2023-02-07T06:48:39;101796.59;;;22.16;24.18
51249;BME280;39642;47.556;18.728;2023-02-07T06:51:05;101787.03;;;22.10;22.95
51249;BME280;39642;47.556;18.728;2023-02-07T06:53:31;101782.84;;;22.03;23.63
51249;BME280;39642;47.556;18.728;2023-02-07T06:55:57;101789.13;;;22.00;23.20
51249;BME280;39642;47.556;18.728;2023-02-07T06:58:23;101779.50;;;21.98;22.21
51249;BME280;39642;47.556;18.728;2023-02-07T07:00:49;101775.91;;;21.99;21.20
51249;BME280;39642;47.556;18.728;2023-02-07T07:03:16;101781.22;;;21.99;22.56
51249;BME280;39642;47.556;18.728;2023-02-07T07:05:43;101782.22;;;21.95;21.45
51249;BME280;39642;47.556;18.728;2023-02-07T07:08:10;101783.13;;;21.95;21.13
51249;BME280;39642;47.556;18.728;2023-02-07T07:10:36;101792.69;;;21.99;21.31
51249;BME280;39642;47.556;18.728;2023-02-07T07:13:02;101789.97;;;22.02;21.45
51249;BME280;39642;47.556;18.728;2023-02-07T07:15:28;101784.38;;;22.10;22.03
51249;BME280;39642;47.556;18.728;2023-02-07T07:17:55;101785.09;;;22.15;21.59
51249;BME280;39642;47.556;18.728;2023-02-07T07:20:21;101784.16;;;22.18;21.15
51249;BME280;39642;47.556;18.728;2023-02-07T07:22:48;101780.44;;;22.23;21.04
51249;BME280;39642;47.556;18.728;2023-02-07T07:25:14;101775.00;;;22.27;21.16
51249;BME280;39642;47.556;18.728;2023-02-07T07:27:40;101778.44;;;22.30;21.28
51249;BME280;39642;47.556;18.728;2023-02-07T07:30:06;101768.63;;;22.32;21.37
51249;BME280;39642;47.556;18.728;2023-02-07T07:32:34;101775.50;;;22.38;21.40
51249;BME280;39642;47.556;18.728;2023-02-07T07:35:00;101772.69;;;22.42;21.39
51249;BME280;39642;47.556;18.728;2023-02-07T07:37:26;101776.94;;;22.48;21.33
51249;BME280;39642;47.556;18.728;2023-02-07T07:39:52;101773.25;;;22.52;21.35
51249;BME280;39642;47.556;18.728;2023-02-07T07:42:18;101782.84;;;22.56;21.30
51249;BME280;39642;47.556;18.728;2023-02-07T07:44:44;101777.41;;;22.59;21.27
51249;BME280;39642;47.556;18.728;2023-02-07T07:47:10;101781.75;;;22.62;21.70
51249;BME280;39642;47.556;18.728;2023-02-07T07:49:35;101780.94;;;22.60;22.31
51249;BME280;39642;47.556;18.728;2023-02-07T07:52:01;101787.19;;;22.59;22.88
51249;BME280;39642;47.556;18.728;2023-02-07T07:54:27;101780.94;;;22.60;23.04
51249;BME280;39642;47.556;18.728;2023-02-07T07:56:55;101775.53;;;22.63;24.26
51249;BME280;39642;47.556;18.728;2023-02-07T07:59:20;101772.87;;;22.63;25.05
51249;BME280;39642;47.556;18.728;2023-02-07T08:01:46;101778.31;;;22.58;24.29
51249;BME280;39642;47.556;18.728;2023-02-07T14:03:05;101645.06;;;21.18;28.10
51249;BME280;39642;47.556;18.728;2023-02-07T14:05:43;101645.06;;;21.18;28.10
51249;BME280;39642;47.556;18.728;2023-02-07T14:21:01;101643.97;;;20.69;30.51
51249;BME280;39642;47.556;18.728;2023-02-07T14:34:16;101650.19;;;20.96;30.83
51249;BME280;39642;47.556;18.728;2023-02-07T14:36:46;101655.38;;;20.99;30.97
51249;BME280;39642;47.556;18.728;2023-02-07T14:41:40;101654.13;;;21.11;31.64
51249;BME280;39642;47.556;18.728;2023-02-07T14:46:51;101660.72;;;21.26;31.37
51249;BME280;39642;47.556;18.728;2023-02-07T14:51:53;101660.31;;;21.38;30.92
51249;BME280;39642;47.556;18.728;2023-02-07T15:02:35;101667.69;;;21.57;29.22
51249;BME280;39642;47.556;18.728;2023-02-07T15:05:22;101667.66;;;21.58;28.85
51249;BME280;39642;47.556;18.728;2023-02-07T15:13:00;101678.97;;;21.63;27.35
51249;BME280;39642;47.556;18.728;2023-02-07T15:15:29;101677.13;;;21.66;31.60
51249;BME280;39642;47.556;18.728;2023-02-07T15:17:57;101669.12;;;21.67;30.27
51249;BME280;39642;47.556;18.728;2023-02-07T15:20:33;101675.22;;;21.71;32.79
51249;BME280;39642;47.556;18.728;2023-02-07T15:23:02;101672.50;;;21.72;29.32
51249;BME280;39642;47.556;18.728;2023-02-07T15:25:28;101671.63;;;21.72;28.23
51249;BME280;39642;47.556;18.728;2023-02-07T15:31:19;101671.63;;;21.72;27.51
51249;BME280;39642;47.556;18.728;2023-02-07T15:38:57;101692.22;;;21.63;30.38
51249;BME280;39642;47.556;18.728;2023-02-07T15:41:25;101681.75;;;21.59;31.22
51249;BME280;39642;47.556;18.728;2023-02-07T15:43:57;101692.47;;;21.56;31.57
51249;BME280;39642;47.556;18.728;2023-02-07T15:46:24;101694.31;;;21.54;32.28
51249;BME280;39642;47.556;18.728;2023-02-07T15:48:53;101687.34;;;21.51;30.76
51249;BME280;39642;47.556;18.728;2023-02-07T15:51:25;101683.81;;;21.51;30.39
51249;BME280;39642;47.556;18.728;2023-02-07T15:53:58;101697.00;;;21.52;30.13
51249;BME280;39642;47.556;18.728;2023-02-07T15:56:28;101697.00;;;21.52;29.97
51249;BME280;39642;47.556;18.728;2023-02-07T16:02:27;101706.50;;;21.59;27.58
51249;BME280;39642;47.556;18.728;2023-02-07T16:05:05;101706.50;;;21.59;28.09
51249;BME280;39642;47.556;18.728;2023-02-07T16:07:31;101708.25;;;21.60;27.15
51249;BME280;39642;47.556;18.728;2023-02-07T16:12:57;101705.47;;;21.63;25.83
51249;BME280;39642;47.556;18.728;2023-02-07T16:17:52;101711.66;;;21.64;25.70
51249;BME280;39642;47.556;18.728;2023-02-07T16:20:18;101709.84;;;21.66;25.25
51249;BME280;39642;47.556;18.728;2023-02-07T16:22:45;101716.91;;;21.66;25.48
51249;BME280;39642;47.556;18.728;2023-02-07T16:25:17;101719.50;;;21.67;25.44
51249;BME280;39642;47.556;18.728;2023-02-07T16:27:46;101715.94;;;21.68;25.17
51249;BME280;39642;47.556;18.728;2023-02-07T16:30:15;101717.63;;;21.71;25.06
51249;BME280;39642;47.556;18.728;2023-02-07T16:32:41;101712.34;;;21.71;25.43
51249;BME280;39642;47.556;18.728;2023-02-07T16:35:20;101713.22;;;21.70;25.12
51249;BME280;39642;47.556;18.728;2023-02-07T16:37:46;101716.75;;;21.70;24.47
51249;BME280;39642;47.556;18.728;2023-02-07T16:40:13;101719.47;;;21.69;24.66
51249;BME280;39642;47.556;18.728;2023-02-07T16:42:41;101723.03;;;21.68;24.54
51249;BME280;39642;47.556;18.728;2023-02-07T16:45:19;101721.31;;;21.67;24.19
51249;BME280;39642;47.556;18.728;2023-02-07T16:47:45;101718.56;;;21.68;23.76
51249;BME280;39642;47.556;18.728;2023-02-07T16:50:20;101723.94;;;21.67;23.50
51249;BME280;39642;47.556;18.728;2023-02-07T16:52:47;101718.56;;;21.68;23.58
51249;BME280;39642;47.556;18.728;2023-02-07T16:55:18;101719.41;;;21.70;23.59
51249;BME280;39642;47.556;18.728;2023-02-07T16:57:44;101709.72;;;21.69;23.71
51249;BME280;39642;47.556;18.728;2023-02-07T17:00:14;101722.94;;;21.71;23.63
51249;BME280;39642;47.556;18.728;2023-02-07T17:02:41;101715.88;;;21.70;23.61
51249;BME280;39642;47.556;18.728;2023-02-07T17:05:08;101718.50;;;21.71;23.57
51249;BME280;39642;47.556;18.728;2023-02-07T17:07:34;101714.91;;;21.72;23.38
51249;BME280;39642;47.556;18.728;2023-02-07T17:10:00;101714.00;;;21.73;23.13
51249;BME280;39642;47.556;18.728;2023-02-07T17:12:26;101722.94;;;21.71;23.07
51249;BME280;39642;47.556;18.728;2023-02-07T17:14:52;101730.00;;;21.70;23.14
51249;BME280;39642;47.556;18.728;2023-02-07T17:17:18;101721.16;;;21.71;23.24
51249;BME280;39642;47.556;18.728;2023-02-07T17:19:44;101723.81;;;21.71;23.23
51249;BME280;39642;47.556;18.728;2023-02-07T17:22:12;101729.91;;;21.73;23.16
51249;BME280;39642;47.556;18.728;2023-02-07T17:24:38;101725.50;;;21.72;23.09
51249;BME280;39642;47.556;18.728;2023-02-07T17:27:04;101724.63;;;21.73;23.02
51249;BME280;39642;47.556;18.728;2023-02-07T17:29:30;101723.69;;;21.74;23.02
51249;BME280;39642;47.556;18.728;2023-02-07T17:31:56;101723.69;;;21.74;22.75
51249;BME280;39642;47.556;18.728;2023-02-07T17:34:22;101734.41;;;21.71;23.01
51249;BME280;39642;47.556;18.728;2023-02-07T17:36:48;101733.47;;;21.72;22.96
51249;BME280;39642;47.556;18.728;2023-02-07T17:39:17;101739.63;;;21.73;23.68
51249;BME280;39642;47.556;18.728;2023-02-07T17:41:43;101737.91;;;21.72;23.08
51249;BME280;39642;47.556;18.728;2023-02-07T17:44:09;101736.97;;;21.73;23.01
51249;BME280;39642;47.556;18.728;2023-02-07T17:46:35;101729.03;;;21.73;22.87
51249;BME280;39642;47.556;18.728;2023-02-07T17:49:01;101733.47;;;21.72;22.87
51249;BME280;39642;47.556;18.728;2023-02-07T17:51:27;101736.97;;;21.73;22.87
51249;BME280;39642;47.556;18.728;2023-02-07T17:53:54;101744.03;;;21.74;22.89
51249;BME280;39642;47.556;18.728;2023-02-07T17:56:26;101743.19;;;21.73;22.92
51249;BME280;39642;47.556;18.728;2023-02-07T17:58:54;101736.09;;;21.74;22.88
51249;BME280;39642;47.556;18.728;2023-02-07T18:01:21;101733.44;;;21.74;22.96
51249;BME280;39642;47.556;18.728;2023-02-07T18:03:49;101739.59;;;21.74;24.17
51249;BME280;39642;47.556;18.728;2023-02-07T18:06:18;101744.91;;;21.74;23.08
51249;BME280;39642;47.556;18.728;2023-02-07T18:08:44;101751.06;;;21.75;22.87
51249;BME280;39642;47.556;18.728;2023-02-07T18:11:11;101752.81;;;21.76;22.96
51249;BME280;39642;47.556;18.728;2023-02-07T18:13:40;101752.81;;;21.76;22.88
51249;BME280;39642;47.556;18.728;2023-02-07T18:16:07;101755.47;;;21.76;22.85
51249;BME280;39642;47.556;18.728;2023-02-07T18:18:34;101755.47;;;21.76;22.80
51249;BME280;39642;47.556;18.728;2023-02-07T18:21:02;101760.78;;;21.76;22.77
51249;BME280;39642;47.556;18.728;2023-02-07T18:23:28;101766.06;;;21.76;22.81
51249;BME280;39642;47.556;18.728;2023-02-07T18:25:54;101770.44;;;21.77;22.74
51249;BME280;39642;47.556;18.728;2023-02-07T18:28:19;101769.59;;;21.76;22.79
51249;BME280;39642;47.556;18.728;2023-02-07T18:30:45;101761.63;;;21.76;22.69
51249;BME280;39642;47.556;18.728;2023-02-07T18:33:11;101765.13;;;21.77;22.69
51249;BME280;39642;47.556;18.728;2023-02-07T18:35:38;101759.84;;;21.77;22.98
51249;BME280;39642;47.556;18.728;2023-02-07T18:38:04;101759.84;;;21.77;22.71
51249;BME280;39642;47.556;18.728;2023-02-07T18:40:30;101755.47;;;21.76;22.66
51249;BME280;39642;47.556;18.728;2023-02-07T18:42:55;101772.22;;;21.76;22.58
51249;BME280;39642;47.556;18.728;2023-02-07T18:45:22;101777.53;;;21.76;22.69
51249;BME280;39642;47.556;18.728;2023-02-07T18:47:48;101769.63;;;21.75;22.57
51249;BME280;39642;47.556;18.728;2023-02-07T18:50:15;101778.47;;;21.75;22.52
51249;BME280;39642;47.556;18.728;2023-02-07T18:52:43;101769.59;;;21.76;22.52
51249;BME280;39642;47.556;18.728;2023-02-07T18:55:08;101769.59;;;21.76;22.49
51249;BME280;39642;47.556;18.728;2023-02-07T18:57:34;101779.28;;;21.77;22.43
51249;BME280;39642;47.556;18.728;2023-02-07T19:00:02;101775.72;;;21.78;22.42
51249;BME280;39642;47.556;18.728;2023-02-07T19:02:29;101773.91;;;21.79;22.70
51249;BME280;39642;47.556;18.728;2023-02-07T19:04:54;101770.41;;;21.78;22.45
51249;BME280;39642;47.556;18.728;2023-02-07T19:07:20;101768.63;;;21.79;22.35
51249;BME280;39642;47.556;18.728;2023-02-07T19:09:46;101769.53;;;21.78;22.65
51249;BME280;39642;47.556;18.728;2023-02-07T19:12:12;101774.00;;;21.77;22.50
51249;BME280;39642;47.556;18.728;2023-02-07T19:14:38;101781.06;;;21.77;22.50
51249;BME280;39642;47.556;18.728;2023-02-07T19:17:04;101775.75;;;21.77;23.04
51249;BME280;39642;47.556;18.728;2023-02-07T19:19:31;101781.94;;;21.77;23.27
51249;BME280;39642;47.556;18.728;2023-02-07T19:21:57;101782.81;;;21.78;23.21
51249;BME280;39642;47.556;18.728;2023-02-07T19:24:24;101779.22;;;21.79;23.46
51249;BME280;39642;47.556;18.728;2023-02-07T19:26:53;101791.56;;;21.80;23.46
51249;BME280;39642;47.556;18.728;2023-02-07T19:29:22;101780.06;;;21.79;22.49
51249;BME280;39642;47.556;18.728;2023-02-07T19:31:59;101783.63;;;21.80;22.68
51249;BME280;39642;47.556;18.728;2023-02-07T19:34:25;101778.31;;;21.80;22.50
51249;BME280;39642;47.556;18.728;2023-02-07T19:36:51;101769.47;;;21.79;22.44
51249;BME280;39642;47.556;18.728;2023-02-07T19:39:17;101773.91;;;21.79;22.46
51249;BME280;39642;47.556;18.728;2023-02-07T19:41:44;101785.38;;;21.79;22.44
51249;BME280;39642;47.556;18.728;2023-02-07T19:44:10;101762.44;;;21.78;22.42
51249;BME280;39642;47.556;18.728;2023-02-07T19:46:36;101774.00;;;21.77;22.40
51249;BME280;39642;47.556;18.728;2023-02-07T19:49:02;101772.19;;;21.78;22.36
51249;BME280;39642;47.556;18.728;2023-02-07T19:51:29;101772.19;;;21.78;22.35
51249;BME280;39642;47.556;18.728;2023-02-07T19:53:57;101767.78;;;21.77;22.31
51249;BME280;39642;47.556;18.728;2023-02-07T19:56:25;101780.16;;;21.78;22.28
51249;BME280;39642;47.556;18.728;2023-02-07T19:58:53;101780.19;;;21.76;22.31
51249;BME280;39642;47.556;18.728;2023-02-07T20:01:21;101787.25;;;21.77;22.17
51249;BME280;39642;47.556;18.728;2023-02-07T20:03:50;101778.41;;;21.77;22.16
51249;BME280;39642;47.556;18.728;2023-02-07T20:06:19;101777.53;;;21.76;22.17
51249;BME280;39642;47.556;18.728;2023-02-07T20:08:45;101764.28;;;21.76;22.13
51249;BME280;39642;47.556;18.728;2023-02-07T20:11:13;101767.88;;;21.75;22.08
51249;BME280;39642;47.556;18.728;2023-02-07T20:13:41;101774.03;;;21.76;22.05
51249;BME280;39642;47.556;18.728;2023-02-07T20:16:20;101780.19;;;21.76;22.06
51249;BME280;39642;47.556;18.728;2023-02-07T20:18:47;101786.44;;;21.75;21.99